createdAt,value
2024-02-28T00:01:08.975Z,14.43
2024-02-28T00:03:44.841Z,13.60
2024-02-28T00:06:15.101Z,13.77
2024-02-28T00:08:45.422Z,13.38
2024-02-28T00:11:19.298Z,14.48
2024-02-28T00:13:51.315Z,14.90
2024-02-28T00:16:22.665Z,15.25
2024-02-28T00:18:57.113Z,14.80
2024-02-28T00:21:27.800Z,14.82
2024-02-28T00:24:00.150Z,13.93
2024-02-28T00:26:35.273Z,15.27
2024-02-28T00:29:06.926Z,14.77
2024-02-28T00:31:40.647Z,13.90
2024-02-28T00:34:15.952Z,13.93
2024-02-28T00:36:55.110Z,14.20
2024-02-28T00:39:29.116Z,14.52
2024-02-28T00:42:02.898Z,13.88
2024-02-28T00:44:35.548Z,14.90
2024-02-28T00:47:07.389Z,13.93
2024-02-28T00:49:40.040Z,14.02
2024-02-28T00:52:13.412Z,13.98
2024-02-28T00:54:45.212Z,14.85
2024-02-28T00:57:18.310Z,14.85
2024-02-28T00:59:49.245Z,13.80
2024-02-28T01:02:23.207Z,13.02
2024-02-28T01:04:56.621Z,13.65
2024-02-28T01:07:29.093Z,14.15
2024-02-28T01:10:02.126Z,14.88
2024-02-28T01:12:37.191Z,13.85
2024-02-28T01:15:08.753Z,13.98
2024-02-28T01:17:41.334Z,12.90
2024-02-28T01:20:14.036Z,12.23
2024-02-28T01:22:47.920Z,12.70
2024-02-28T01:25:18.689Z,12.90
2024-02-28T01:27:51.781Z,12.75
2024-02-28T01:30:26.187Z,12.15
2024-02-28T01:32:57.532Z,11.30
2024-02-28T01:35:28.068Z,11.13
2024-02-28T01:37:59.595Z,12.00
2024-02-28T01:40:32.439Z,12.77
2024-02-28T01:43:15.156Z,12.98
2024-02-28T01:45:50.153Z,13.43
2024-02-28T01:48:24.353Z,12.55
2024-02-28T01:50:56.438Z,12.77
2024-02-28T01:53:29.809Z,13.48
2024-02-28T01:56:02.455Z,13.10
2024-02-28T01:58:38.817Z,14.07
2024-02-28T02:01:09.468Z,13.23
2024-02-28T02:03:39.853Z,14.02
2024-02-28T02:06:14.011Z,13.48
2024-02-28T02:08:45.704Z,14.20
2024-02-28T02:11:20.342Z,13.43
2024-02-28T02:13:57.922Z,13.75
2024-02-28T02:16:33.573Z,13.93
2024-02-28T02:19:04.168Z,14.15
2024-02-28T02:21:35.199Z,15.48
2024-02-28T02:24:09.360Z,13.68
2024-02-28T02:26:42.533Z,15.50
2024-02-28T02:29:10.783Z,14.05
2024-02-28T02:31:43.110Z,14.82
2024-02-28T02:34:15.744Z,14.73
2024-02-28T02:36:47.480Z,14.60
2024-02-28T02:39:20.663Z,15.93
2024-02-28T02:41:51.592Z,14.32
2024-02-28T02:44:30.316Z,16.05
2024-02-28T02:47:02.445Z,15.55
2024-02-28T02:49:32.985Z,15.63
2024-02-28T02:52:05.449Z,15.60
2024-02-28T02:54:42.621Z,15.40
2024-02-28T02:57:15.076Z,14.45
2024-02-28T02:59:45.044Z,14.60
2024-02-28T03:02:15.464Z,15.38
2024-02-28T03:04:45.381Z,14.93
2024-02-28T03:07:19.347Z,15.80
2024-02-28T03:09:51.908Z,15.30
2024-02-28T03:12:23.094Z,14.88
2024-02-28T03:14:53.162Z,15.15
2024-02-28T03:17:24.320Z,15.20
2024-02-28T03:19:56.334Z,15.07
2024-02-28T03:22:26.761Z,15.57
2024-02-28T03:25:00.536Z,16.30
2024-02-28T03:27:31.100Z,15.10
2024-02-28T03:30:01.292Z,14.75
2024-02-28T03:32:32.357Z,13.80
2024-02-28T03:35:03.282Z,16.13
2024-02-28T03:37:36.046Z,14.85
2024-02-28T03:40:09.765Z,14.75
2024-02-28T03:42:40.721Z,16.00
2024-02-28T03:45:11.793Z,16.15
2024-02-28T03:47:43.631Z,16.48
2024-02-28T03:50:13.664Z,15.95
2024-02-28T03:52:44.559Z,15.02
2024-02-28T03:55:17.405Z,15.88
2024-02-28T03:57:53.628Z,15.65
2024-02-28T04:00:24.169Z,14.32
2024-02-28T04:02:56.292Z,14.55
2024-02-28T04:05:27.522Z,15.10
2024-02-28T04:07:58.075Z,14.75
2024-02-28T04:10:31.216Z,15.23
2024-02-28T04:13:05.538Z,14.50
2024-02-28T04:15:36.887Z,13.95
2024-02-28T04:18:07.639Z,14.60
2024-02-28T04:20:39.712Z,14.55
2024-02-28T04:23:09.651Z,14.77
2024-02-28T04:25:44.995Z,15.82
2024-02-28T04:28:15.956Z,14.98
2024-02-28T04:30:47.403Z,15.80
2024-02-28T04:33:17.423Z,14.40
2024-02-28T04:35:48.751Z,15.10
2024-02-28T04:38:19.510Z,15.23
2024-02-28T04:40:53.686Z,14.52
2024-02-28T04:43:23.982Z,15.00
2024-02-28T04:45:53.935Z,15.35
2024-02-28T04:48:24.020Z,15.35
2024-02-28T04:50:55.367Z,15.77
2024-02-28T04:53:25.796Z,15.50
2024-02-28T04:55:58.349Z,16.73
2024-02-28T04:58:29.198Z,16.10
2024-02-28T05:01:00.596Z,17.33
2024-02-28T05:03:31.814Z,16.17
2024-02-28T05:06:04.729Z,16.98
2024-02-28T05:08:34.696Z,16.10
2024-02-28T05:11:07.420Z,16.70
2024-02-28T05:13:39.564Z,16.42
2024-02-28T05:16:17.462Z,15.38
2024-02-28T05:18:50.798Z,15.43
2024-02-28T05:21:22.060Z,17.25
2024-02-28T05:23:54.294Z,17.25
2024-02-28T05:26:28.531Z,15.27
2024-02-28T05:29:00.889Z,17.40
2024-02-28T05:31:32.767Z,17.30
2024-02-28T05:34:03.970Z,17.00
2024-02-28T05:36:35.146Z,15.55
2024-02-28T05:39:07.135Z,15.88
2024-02-28T05:41:42.914Z,15.68
2024-02-28T05:44:13.374Z,15.68
2024-02-28T05:46:44.642Z,16.38
2024-02-28T05:49:14.596Z,16.23
2024-02-28T05:51:44.608Z,16.63
2024-02-28T05:54:14.743Z,16.05
2024-02-28T05:56:50.974Z,16.75
2024-02-28T05:59:22.007Z,16.65
2024-02-28T06:01:52.022Z,17.42
2024-02-28T06:04:24.662Z,16.33
2024-02-28T06:07:00.189Z,17.25
2024-02-28T06:09:31.484Z,16.83
2024-02-28T06:12:04.693Z,16.60
2024-02-28T06:14:34.623Z,18.83
2024-02-28T06:17:05.403Z,16.92
2024-02-28T06:19:35.355Z,17.35
2024-02-28T06:22:06.266Z,16.77
2024-02-28T06:24:38.201Z,16.42
2024-02-28T06:27:15.081Z,17.30
2024-02-28T06:29:47.363Z,16.48
2024-02-28T06:32:19.665Z,17.60
2024-02-28T06:34:49.600Z,16.90
2024-02-28T06:37:23.039Z,16.13
2024-02-28T06:39:53.074Z,17.35
2024-02-28T06:42:26.776Z,15.43
2024-02-28T06:44:56.920Z,13.05
2024-02-28T06:47:28.005Z,14.90
2024-02-28T06:49:59.003Z,14.48
2024-02-28T06:52:31.440Z,15.10
2024-02-28T06:55:07.445Z,15.20
2024-02-28T06:57:43.298Z,13.07
2024-02-28T07:00:16.319Z,13.52
2024-02-28T07:02:47.362Z,14.15
2024-02-28T07:05:19.212Z,16.15
2024-02-28T07:07:49.701Z,16.38
2024-02-28T07:10:21.471Z,16.80
2024-02-28T07:12:56.324Z,16.30
2024-02-28T07:15:27.245Z,15.93
2024-02-28T07:18:00.135Z,15.93
2024-02-28T07:20:30.887Z,17.80
2024-02-28T07:23:00.821Z,18.02
2024-02-28T07:25:33.738Z,18.05
2024-02-28T07:28:08.351Z,18.88
2024-02-28T07:30:38.460Z,18.80
2024-02-28T07:33:09.799Z,17.75
2024-02-28T07:35:48.800Z,17.40
2024-02-28T07:38:21.558Z,17.40
2024-02-28T07:40:52.208Z,18.20
2024-02-28T07:43:24.840Z,16.88
2024-02-28T07:45:55.299Z,17.23
2024-02-28T07:48:25.278Z,18.98
2024-02-28T07:50:55.294Z,18.35
2024-02-28T07:53:25.709Z,16.92
2024-02-28T07:55:59.250Z,17.02
2024-02-28T07:58:32.328Z,15.50
2024-02-28T08:01:08.644Z,15.40
2024-02-28T08:03:38.932Z,15.35
2024-02-28T08:06:12.631Z,15.68
2024-02-28T08:08:42.706Z,15.60
2024-02-28T08:11:15.006Z,15.65
2024-02-28T08:13:47.625Z,14.38
2024-02-28T08:16:19.777Z,15.75
2024-02-28T08:18:49.798Z,15.45
2024-02-28T08:21:19.953Z,14.82
2024-02-28T08:23:49.934Z,16.00
2024-02-28T08:26:19.998Z,15.68
2024-02-28T08:28:54.989Z,15.23
2024-02-28T08:31:24.956Z,15.90
2024-02-28T08:33:57.722Z,15.57
2024-02-28T08:36:30.662Z,14.93
2024-02-28T08:39:00.992Z,14.77
2024-02-28T08:41:31.568Z,15.25
2024-02-28T08:44:05.507Z,15.85
2024-02-28T08:46:37.797Z,14.68
2024-02-28T08:49:08.349Z,15.38
2024-02-28T08:51:39.262Z,16.30
2024-02-28T08:54:11.120Z,16.33
2024-02-28T08:56:49.773Z,17.58
2024-02-28T08:59:26.673Z,17.65
2024-02-28T09:01:57.175Z,17.20
2024-02-28T09:04:27.151Z,16.80
2024-02-28T09:06:57.642Z,17.27
2024-02-28T09:09:27.588Z,17.35
2024-02-28T09:11:59.018Z,16.98
2024-02-28T09:14:34.190Z,15.90
2024-02-28T09:17:06.177Z,16.33
2024-02-28T09:19:36.555Z,17.35
2024-02-28T09:22:07.094Z,18.25
2024-02-28T09:24:37.828Z,17.65
2024-02-28T09:27:08.607Z,17.73
2024-02-28T09:29:43.328Z,18.25
2024-02-28T09:32:15.204Z,18.17
2024-02-28T09:34:45.119Z,17.88
2024-02-28T09:37:16.190Z,17.92
2024-02-28T09:39:48.962Z,18.83
2024-02-28T09:42:20.191Z,19.13
2024-02-28T09:44:53.822Z,17.45
2024-02-28T09:47:24.291Z,19.92
2024-02-28T09:49:53.527Z,17.63
2024-02-28T09:52:24.080Z,16.92
2024-02-28T09:54:54.123Z,18.38
2024-02-28T09:57:29.716Z,18.90
2024-02-28T10:00:06.718Z,17.90
2024-02-28T10:02:40.979Z,18.52
2024-02-28T10:05:12.341Z,17.88
2024-02-28T10:07:42.436Z,17.48
2024-02-28T10:10:12.644Z,17.17
2024-02-28T10:12:46.144Z,16.00
2024-02-28T10:15:18.945Z,14.75
2024-02-28T10:17:50.632Z,17.27
2024-02-28T10:20:20.982Z,17.13
2024-02-28T10:22:53.079Z,15.63
2024-02-28T10:25:29.091Z,18.20
2024-02-28T10:28:04.105Z,16.17
2024-02-28T10:30:37.204Z,17.52
2024-02-28T10:33:08.230Z,15.25
2024-02-28T10:35:40.413Z,15.38
2024-02-28T10:38:11.347Z,17.17
2024-02-28T10:40:44.662Z,16.23
2024-02-28T10:43:15.475Z,16.27
2024-02-28T10:46:06.911Z,16.40
2024-02-28T10:48:39.555Z,16.13
2024-02-28T10:51:17.017Z,15.90
2024-02-28T10:53:50.078Z,16.95
2024-02-28T10:56:24.127Z,15.85
2024-02-28T10:58:56.364Z,13.65
2024-02-28T11:01:29.224Z,15.70
2024-02-28T11:04:00.892Z,15.40
2024-02-28T11:06:31.351Z,15.82
2024-02-28T11:09:04.510Z,14.50
2024-02-28T11:11:35.633Z,15.18
2024-02-28T11:14:06.705Z,15.05
2024-02-28T11:16:39.685Z,15.60
2024-02-28T11:22:43.412Z,14.10
2024-02-28T11:25:14.281Z,14.88
2024-02-28T11:27:51.588Z,13.85
2024-02-28T11:30:23.265Z,14.00
2024-02-28T11:33:05.618Z,14.00
2024-02-28T11:35:38.918Z,13.40
2024-02-28T11:38:11.445Z,14.50
2024-02-28T11:40:43.029Z,13.65
2024-02-28T11:43:13.842Z,12.95
2024-02-28T11:45:45.227Z,12.63
2024-02-28T11:48:18.816Z,13.27
2024-02-28T11:50:51.263Z,13.10
2024-02-28T11:53:21.624Z,12.70
2024-02-28T11:55:52.153Z,11.50
2024-02-28T11:58:22.168Z,11.80
2024-02-28T12:00:56.012Z,10.70
2024-02-28T12:03:29.471Z,11.57
2024-02-28T12:06:00.908Z,10.18
2024-02-28T12:08:31.969Z,10.27
2024-02-28T12:11:11.692Z,9.45
2024-02-28T12:13:41.914Z,9.85
2024-02-28T12:16:15.002Z,9.10
2024-02-28T12:18:48.211Z,8.40
2024-02-28T12:21:18.181Z,9.13
2024-02-28T12:23:48.136Z,7.78
2024-02-28T12:26:18.090Z,7.45
2024-02-28T12:28:47.991Z,7.15
2024-02-28T12:31:19.516Z,6.15
2024-02-28T12:33:54.628Z,5.90
2024-02-28T12:36:25.822Z,5.68
2024-02-28T12:38:58.189Z,5.97
2024-02-28T12:41:31.265Z,5.55
2024-02-28T12:44:01.257Z,5.20
2024-02-28T12:46:33.329Z,5.70
2024-02-28T12:49:06.234Z,4.43
2024-02-28T12:51:45.676Z,4.65
2024-02-28T12:54:16.551Z,4.78
2024-02-28T12:56:47.805Z,4.90
2024-02-28T12:59:17.846Z,4.63
2024-02-28T13:01:49.761Z,4.80
2024-02-28T13:04:26.843Z,4.43
2024-02-28T13:09:32.854Z,4.55
2024-02-28T13:12:04.025Z,4.65
2024-02-28T13:14:34.180Z,4.85
2024-02-28T13:17:07.265Z,4.72
2024-02-28T13:19:39.738Z,4.82
2024-02-28T13:22:10.252Z,4.63
2024-02-28T13:24:41.458Z,4.35
2024-02-28T13:27:11.538Z,4.25
2024-02-28T13:29:41.427Z,4.00
2024-02-28T13:32:11.807Z,3.50
2024-02-28T13:34:47.585Z,3.47
2024-02-28T13:37:19.952Z,3.20
2024-02-28T13:39:53.253Z,3.20
2024-02-28T13:42:27.878Z,2.85
2024-02-28T13:44:58.601Z,3.00
2024-02-28T13:47:31.323Z,3.00
2024-02-28T13:50:03.898Z,2.70
2024-02-28T13:52:33.934Z,2.83
2024-02-28T13:55:04.641Z,2.80
2024-02-28T13:57:34.760Z,2.83
2024-02-28T14:00:10.113Z,3.15
2024-02-28T14:02:40.983Z,2.80
2024-02-28T14:05:13.659Z,2.50
2024-02-28T14:07:45.829Z,2.70
2024-02-28T14:10:18.429Z,2.78
2024-02-28T14:12:50.334Z,2.67
2024-02-28T14:15:21.546Z,3.35
2024-02-28T14:17:52.647Z,2.47
2024-02-28T14:20:25.890Z,2.67
2024-02-28T14:22:59.369Z,2.67
2024-02-28T14:25:32.433Z,2.70
2024-02-28T14:28:02.923Z,2.47
2024-02-28T14:30:35.657Z,2.85
2024-02-28T14:33:11.646Z,2.85
2024-02-28T14:35:46.388Z,2.33
2024-02-28T14:38:16.745Z,2.53
2024-02-28T14:40:49.542Z,2.60
2024-02-28T14:43:19.876Z,2.67
2024-02-28T14:45:50.636Z,2.40
2024-02-28T14:48:23.538Z,2.60
2024-02-28T14:50:56.545Z,2.50
2024-02-28T14:53:28.988Z,2.45
2024-02-28T14:55:59.465Z,2.80
2024-02-28T14:58:29.407Z,3.13
2024-02-28T15:01:01.672Z,3.22
2024-02-28T15:03:32.388Z,3.80
2024-02-28T15:06:09.813Z,3.00
2024-02-28T15:08:40.427Z,2.47
2024-02-28T15:11:11.964Z,3.00
2024-02-28T15:13:43.202Z,2.90
2024-02-28T15:16:13.525Z,2.97
2024-02-28T15:18:45.712Z,2.28
2024-02-28T15:21:18.245Z,2.00
2024-02-28T15:23:50.026Z,2.70
2024-02-28T15:26:31.559Z,2.80
2024-02-28T15:29:13.642Z,2.97
2024-02-28T15:31:46.256Z,6.75
2024-02-28T15:34:18.116Z,3.00
2024-02-28T15:36:51.182Z,3.00
2024-02-28T15:39:21.121Z,2.78
2024-02-28T15:41:53.097Z,2.70
2024-02-28T15:44:24.194Z,2.80
2024-02-28T15:46:54.260Z,2.97
2024-02-28T15:49:33.013Z,2.95
2024-02-28T15:52:13.711Z,2.60
2024-02-28T15:54:43.746Z,2.70
2024-02-28T15:57:14.606Z,3.00
2024-02-28T15:59:47.002Z,2.70
2024-02-28T16:02:17.633Z,2.47
2024-02-28T16:04:49.958Z,2.72
2024-02-28T16:07:24.674Z,2.30
2024-02-28T16:09:57.968Z,2.40
2024-02-28T16:12:28.863Z,2.35
2024-02-28T16:14:59.194Z,2.25
2024-02-28T16:17:30.632Z,2.40
2024-02-28T16:20:03.734Z,2.00
2024-02-28T16:22:36.726Z,2.28
2024-02-28T16:25:07.967Z,1.60
2024-02-28T16:27:40.105Z,1.75
2024-02-28T16:30:12.117Z,2.13
2024-02-28T16:32:44.202Z,1.73
2024-02-28T16:35:14.201Z,1.70
2024-02-28T16:37:49.096Z,1.80
2024-02-28T16:40:20.246Z,1.52
2024-02-28T16:42:50.608Z,1.58
2024-02-28T16:45:20.496Z,1.70
2024-02-28T16:47:52.299Z,1.90
2024-02-28T16:50:22.315Z,1.90
2024-02-28T16:52:55.573Z,2.60
2024-02-28T16:55:26.129Z,3.05
2024-02-28T16:57:56.260Z,2.70
2024-02-28T17:00:26.441Z,4.18
2024-02-28T17:02:57.582Z,2.90
2024-02-28T17:05:27.466Z,2.80
2024-02-28T17:08:02.878Z,2.60
2024-02-28T17:10:34.526Z,2.35
2024-02-28T17:13:05.694Z,2.67
2024-02-28T17:15:37.811Z,3.05
2024-02-28T17:18:08.939Z,2.92
2024-02-28T17:20:40.982Z,2.40
2024-02-28T17:23:14.228Z,2.50
2024-02-28T17:25:44.123Z,2.50
2024-02-28T17:28:16.229Z,5.47
2024-02-28T17:30:47.412Z,2.80
2024-02-28T17:33:17.669Z,2.70
2024-02-28T17:35:49.267Z,4.38
2024-02-28T17:38:23.125Z,2.55
2024-02-28T17:40:55.428Z,2.00
2024-02-28T17:43:30.085Z,2.42
2024-02-28T17:46:04.904Z,2.10
2024-02-28T17:48:40.071Z,2.90
2024-02-28T17:51:11.801Z,2.78
2024-02-28T17:53:44.442Z,2.60
2024-02-28T17:56:16.259Z,4.07
2024-02-28T17:58:48.622Z,3.03
2024-02-28T18:01:19.668Z,3.08
2024-02-28T18:03:53.319Z,2.95
2024-02-28T18:06:25.306Z,3.10
2024-02-28T18:09:00.008Z,3.25
2024-02-28T18:11:32.441Z,3.72
2024-02-28T18:14:08.279Z,3.45
2024-02-28T18:16:40.665Z,3.42
2024-02-28T18:19:14.666Z,3.60
2024-02-28T18:21:44.715Z,3.45
2024-02-28T18:24:21.974Z,3.55
2024-02-28T18:29:24.627Z,3.60
2024-02-28T18:32:03.284Z,3.97
2024-02-28T18:34:36.554Z,3.63
2024-02-28T18:37:08.329Z,4.32
2024-02-28T18:39:47.244Z,4.68
2024-02-28T18:42:20.220Z,4.28
2024-02-28T18:44:57.726Z,4.88
2024-02-28T18:47:28.046Z,5.13
2024-02-28T18:50:01.258Z,5.28
2024-02-28T18:52:31.661Z,5.20
2024-02-28T18:55:11.007Z,5.35
2024-02-28T18:57:44.305Z,5.47
2024-02-28T19:00:24.835Z,5.22
2024-02-28T19:03:01.157Z,5.18
2024-02-28T19:05:32.723Z,5.17
2024-02-28T19:08:03.929Z,5.57
2024-02-28T19:10:36.928Z,5.18
2024-02-28T19:13:11.795Z,5.30
2024-02-28T19:15:41.782Z,5.72
2024-02-28T19:18:12.985Z,6.10
2024-02-28T19:20:45.274Z,9.10
2024-02-28T19:23:15.302Z,6.13
2024-02-28T19:25:56.687Z,6.85
2024-02-28T19:28:35.237Z,5.70
2024-02-28T19:31:06.654Z,5.40
2024-02-28T19:33:40.267Z,5.68
2024-02-28T19:36:15.678Z,4.95
2024-02-28T19:38:46.435Z,4.75
2024-02-28T19:41:21.307Z,5.28
2024-02-28T19:43:51.164Z,4.63
2024-02-28T19:46:23.296Z,4.35
2024-02-28T19:48:54.930Z,4.68
2024-02-28T19:51:28.013Z,5.47
2024-02-28T19:53:59.362Z,5.97
2024-02-28T19:56:33.437Z,6.25
2024-02-28T19:59:06.116Z,6.60
2024-02-28T20:01:43.784Z,6.50
2024-02-28T20:04:18.711Z,5.60
2024-02-28T20:06:52.582Z,5.68
2024-02-28T20:09:24.435Z,5.03
2024-02-28T20:11:58.243Z,5.10
2024-02-28T20:14:30.571Z,4.53
2024-02-28T20:17:01.849Z,4.75
2024-02-28T20:19:33.335Z,4.95
2024-02-28T20:22:04.616Z,4.70
2024-02-28T20:24:35.204Z,5.18
2024-02-28T20:27:10.449Z,4.93
2024-02-28T20:29:42.490Z,5.45
2024-02-28T20:32:16.734Z,5.03
2024-02-28T20:34:48.735Z,4.10
2024-02-28T20:37:19.864Z,4.55
2024-02-28T20:39:51.235Z,5.30
2024-02-28T20:42:24.521Z,5.43
2024-02-28T20:44:54.935Z,6.30
2024-02-28T20:47:24.824Z,6.28
2024-02-28T20:49:55.148Z,5.88
2024-02-28T20:52:26.121Z,6.10
2024-02-28T20:54:58.234Z,5.95
2024-02-28T20:57:30.921Z,5.60
2024-02-28T21:00:04.969Z,5.43
2024-02-28T21:02:36.011Z,5.78
2024-02-28T21:05:07.988Z,5.30
2024-02-28T21:07:48.347Z,5.32
2024-02-28T21:10:23.653Z,5.82
2024-02-28T21:12:57.034Z,5.28
2024-02-28T21:15:33.416Z,5.78
2024-02-28T21:18:05.214Z,5.95
2024-02-28T21:20:38.545Z,5.57
2024-02-28T21:23:10.275Z,5.78
2024-02-28T21:25:42.100Z,5.32
2024-02-28T21:28:16.732Z,5.88
2024-02-28T21:30:49.751Z,5.43
2024-02-28T21:33:22.191Z,5.22
2024-02-28T21:35:53.137Z,5.15
2024-02-28T21:38:23.067Z,5.15
2024-02-28T21:40:53.022Z,5.45
2024-02-28T21:43:27.264Z,4.65
2024-02-28T21:45:58.593Z,5.55
2024-02-28T21:48:33.237Z,5.30
2024-02-28T21:51:05.169Z,4.97
2024-02-28T21:53:35.027Z,5.80
2024-02-28T21:56:07.163Z,4.85
2024-02-28T21:58:41.886Z,5.50
2024-02-28T22:01:11.867Z,5.10
2024-02-28T22:03:42.380Z,6.32
2024-02-28T22:06:13.651Z,5.82
2024-02-28T22:08:44.654Z,6.53
2024-02-28T22:11:14.902Z,5.95
2024-02-28T22:13:47.459Z,5.95
2024-02-28T22:16:19.817Z,6.45
2024-02-28T22:18:50.808Z,6.88
2024-02-28T22:21:20.807Z,7.00
2024-02-28T22:23:50.699Z,6.60
2024-02-28T22:26:23.876Z,6.60
2024-02-28T22:29:02.510Z,6.47
2024-02-28T22:31:33.103Z,5.80
2024-02-28T22:34:11.748Z,6.22
2024-02-28T22:36:42.797Z,5.53
2024-02-28T22:39:13.482Z,5.20
2024-02-28T22:41:45.282Z,5.78
2024-02-28T22:44:22.944Z,5.72
2024-02-28T22:46:55.768Z,6.03
2024-02-28T22:49:25.779Z,6.05
2024-02-28T22:51:56.042Z,6.63
2024-02-28T22:54:31.901Z,6.85
2024-02-28T22:57:01.873Z,6.32
2024-02-28T22:59:34.663Z,5.82
2024-02-28T23:02:07.685Z,5.95
2024-02-28T23:04:42.402Z,6.22
2024-02-28T23:07:13.336Z,6.50
2024-02-28T23:09:46.598Z,5.45
2024-02-28T23:12:19.114Z,6.63
2024-02-28T23:14:52.663Z,5.53
2024-02-28T23:17:22.564Z,6.53
2024-02-28T23:19:54.005Z,6.03
2024-02-28T23:22:23.938Z,6.53
2024-02-28T23:24:54.456Z,6.15
2024-02-28T23:27:27.280Z,5.85
2024-02-28T23:30:05.676Z,6.30
2024-02-28T23:32:38.096Z,5.88
2024-02-28T23:35:14.091Z,5.28
2024-02-28T23:37:45.481Z,6.68
2024-02-28T23:40:19.320Z,6.45
2024-02-28T23:42:52.232Z,5.78
2024-02-28T23:45:24.731Z,6.18
2024-02-28T23:47:59.467Z,5.85
2024-02-28T23:50:32.429Z,6.05
2024-02-28T23:53:05.190Z,6.47
2024-02-28T23:55:36.937Z,7.15
2024-02-28T23:58:09.384Z,5.80
